sensor_id;sensor_type;location;lat;lon;timestamp;temperature;humidity
9265;DHT22;4669;49.594;10.958;2023-12-20T05:27:12;4.70;99.90
9265;DHT22;4669;49.594;10.958;2023-12-20T05:32:14;4.70;99.90
9265;DHT22;4669;49.594;10.958;2023-12-20T05:37:16;4.70;99.90
9265;DHT22;4669;49.594;10.958;2023-12-20T05:42:19;4.70;99.90
9265;DHT22;4669;49.594;10.958;2023-12-20T05:47:21;4.80;99.90
9265;DHT22;4669;49.594;10.958;2023-12-20T05:52:23;4.70;99.90
9265;DHT22;4669;49.594;10.958;2023-12-20T05:57:27;4.80;99.90
9265;DHT22;4669;49.594;10.958;2023-12-20T06:02:29;4.80;99.90
9265;DHT22;4669;49.594;10.958;2023-12-20T06:07:31;4.80;99.90
9265;DHT22;4669;49.594;10.958;2023-12-20T06:12:34;4.80;99.90
9265;DHT22;4669;49.594;10.958;2023-12-20T06:17:37;4.80;99.90
9265;DHT22;4669;49.594;10.958;2023-12-20T06:22:39;4.80;99.90
9265;DHT22;4669;49.594;10.958;2023-12-20T06:27:42;4.80;99.90
9265;DHT22;4669;49.594;10.958;2023-12-20T06:32:44;4.90;99.90
9265;DHT22;4669;49.594;10.958;2023-12-20T06:37:47;4.80;99.90
9265;DHT22;4669;49.594;10.958;2023-12-20T06:42:51;4.80;99.90
9265;DHT22;4669;49.594;10.958;2023-12-20T06:47:52;4.90;99.90
9265;DHT22;4669;49.594;10.958;2023-12-20T06:52:55;4.90;99.90
9265;DHT22;4669;49.594;10.958;2023-12-20T06:57:58;5.00;99.90
9265;DHT22;4669;49.594;10.958;2023-12-20T07:03:00;5.00;99.90
9265;DHT22;4669;49.594;10.958;2023-12-20T07:08:03;5.00;99.90
9265;DHT22;4669;49.594;10.958;2023-12-20T07:13:06;5.00;99.90
9265;DHT22;4669;49.594;10.958;2023-12-20T07:18:08;4.90;99.90
9265;DHT22;4669;49.594;10.958;2023-12-20T07:23:10;4.90;99.90
9265;DHT22;4669;49.594;10.958;2023-12-20T07:28:13;5.00;99.90
9265;DHT22;4669;49.594;10.958;2023-12-20T07:33:15;5.00;99.90
9265;DHT22;4669;49.594;10.958;2023-12-20T07:38:17;5.00;99.90
9265;DHT22;4669;49.594;10.958;2023-12-20T07:43:21;5.00;99.90
9265;DHT22;4669;49.594;10.958;2023-12-20T07:48:23;5.10;99.90
9265;DHT22;4669;49.594;10.958;2023-12-20T07:53:25;5.10;99.90
9265;DHT22;4669;49.594;10.958;2023-12-20T07:58:28;5.10;99.90
9265;DHT22;4669;49.594;10.958;2023-12-20T08:03:31;5.10;99.90
9265;DHT22;4669;49.594;10.958;2023-12-20T08:08:33;5.10;99.90
9265;DHT22;4669;49.594;10.958;2023-12-20T08:13:37;5.10;99.90
9265;DHT22;4669;49.594;10.958;2023-12-20T08:18:39;5.10;99.90
9265;DHT22;4669;49.594;10.958;2023-12-20T08:23:41;5.20;99.90
9265;DHT22;4669;49.594;10.958;2023-12-20T08:28:44;5.20;99.90
9265;DHT22;4669;49.594;10.958;2023-12-20T08:33:47;5.20;99.90
9265;DHT22;4669;49.594;10.958;2023-12-20T08:38:49;5.30;99.90
9265;DHT22;4669;49.594;10.958;2023-12-20T08:43:52;5.20;99.90
9265;DHT22;4669;49.594;10.958;2023-12-20T08:48:55;5.20;99.90
9265;DHT22;4669;49.594;10.958;2023-12-20T08:53:57;5.30;99.90
9265;DHT22;4669;49.594;10.958;2023-12-20T08:59:00;5.20;99.90
9265;DHT22;4669;49.594;10.958;2023-12-20T09:04:02;5.20;99.90
9265;DHT22;4669;49.594;10.958;2023-12-20T09:09:04;5.20;99.90
9265;DHT22;4669;49.594;10.958;2023-12-20T09:14:08;5.20;99.90
9265;DHT22;4669;49.594;10.958;2023-12-20T09:19:10;5.20;99.90
9265;DHT22;4669;49.594;10.958;2023-12-20T09:24:12;5.20;99.90
9265;DHT22;4669;49.594;10.958;2023-12-20T09:29:15;5.30;99.90
9265;DHT22;4669;49.594;10.958;2023-12-20T09:34:18;5.30;99.90
9265;DHT22;4669;49.594;10.958;2023-12-20T09:39:20;5.40;99.90
9265;DHT22;4669;49.594;10.958;2023-12-20T09:44:24;5.50;99.90
9265;DHT22;4669;49.594;10.958;2023-12-20T09:49:27;5.60;99.90
9265;DHT22;4669;49.594;10.958;2023-12-20T09:54:29;5.70;99.90
9265;DHT22;4669;49.594;10.958;2023-12-20T09:59:33;5.70;99.90
9265;DHT22;4669;49.594;10.958;2023-12-20T10:04:35;5.70;99.90
9265;DHT22;4669;49.594;10.958;2023-12-20T10:09:38;5.80;99.90
9265;DHT22;4669;49.594;10.958;2023-12-20T10:14:41;5.90;99.90
9265;DHT22;4669;49.594;10.958;2023-12-20T10:19:43;5.80;99.90
9265;DHT22;4669;49.594;10.958;2023-12-20T10:24:46;5.80;99.90
9265;DHT22;4669;49.594;10.958;2023-12-20T10:29:49;5.80;99.90
9265;DHT22;4669;49.594;10.958;2023-12-20T10:34:52;5.80;99.90
9265;DHT22;4669;49.594;10.958;2023-12-20T10:39:54;5.90;99.90
9265;DHT22;4669;49.594;10.958;2023-12-20T10:45:00;5.80;99.90
9265;DHT22;4669;49.594;10.958;2023-12-20T10:50:05;5.80;99.90
9265;DHT22;4669;49.594;10.958;2023-12-20T10:55:08;5.90;99.90
9265;DHT22;4669;49.594;10.958;2023-12-20T11:00:14;5.90;99.90
9265;DHT22;4669;49.594;10.958;2023-12-20T11:05:25;5.90;99.90
9265;DHT22;4669;49.594;10.958;2023-12-20T11:10:34;5.90;99.90
9265;DHT22;4669;49.594;10.958;2023-12-20T11:15:40;6.00;99.90
9265;DHT22;4669;49.594;10.958;2023-12-20T11:20:42;6.10;99.90
9265;DHT22;4669;49.594;10.958;2023-12-20T11:25:48;6.00;99.90
9265;DHT22;4669;49.594;10.958;2023-12-20T11:30:53;6.00;99.90
9265;DHT22;4669;49.594;10.958;2023-12-20T11:35:56;6.10;99.90
9265;DHT22;4669;49.594;10.958;2023-12-20T11:40:59;6.10;99.90
9265;DHT22;4669;49.594;10.958;2023-12-20T11:46:06;6.00;99.90
9265;DHT22;4669;49.594;10.958;2023-12-20T11:51:10;6.00;99.90
9265;DHT22;4669;49.594;10.958;2023-12-20T11:56:12;6.00;99.90
9265;DHT22;4669;49.594;10.958;2023-12-20T12:01:15;6.00;99.90
9265;DHT22;4669;49.594;10.958;2023-12-20T12:06:17;6.10;99.90
9265;DHT22;4669;49.594;10.958;2023-12-20T12:11:19;6.10;99.90
9265;DHT22;4669;49.594;10.958;2023-12-20T12:16:23;6.10;99.90
9265;DHT22;4669;49.594;10.958;2023-12-20T12:21:25;6.20;99.90
9265;DHT22;4669;49.594;10.958;2023-12-20T12:26:30;6.20;99.90
9265;DHT22;4669;49.594;10.958;2023-12-20T12:31:33;6.30;99.90
9265;DHT22;4669;49.594;10.958;2023-12-20T12:36:36;6.30;99.90
9265;DHT22;4669;49.594;10.958;2023-12-20T12:41:39;6.30;99.90
9265;DHT22;4669;49.594;10.958;2023-12-20T12:46:42;6.30;99.90
9265;DHT22;4669;49.594;10.958;2023-12-20T12:51:44;6.30;99.90
9265;DHT22;4669;49.594;10.958;2023-12-20T12:56:46;6.30;99.90
9265;DHT22;4669;49.594;10.958;2023-12-20T13:01:50;6.20;99.90
9265;DHT22;4669;49.594;10.958;2023-12-20T13:06:52;6.20;99.90
9265;DHT22;4669;49.594;10.958;2023-12-20T13:11:54;6.20;99.90
9265;DHT22;4669;49.594;10.958;2023-12-20T13:16:57;6.00;99.90
9265;DHT22;4669;49.594;10.958;2023-12-20T13:21:59;6.00;99.90
9265;DHT22;4669;49.594;10.958;2023-12-20T13:27:01;6.00;99.90
9265;DHT22;4669;49.594;10.958;2023-12-20T13:32:06;5.90;99.90
9265;DHT22;4669;49.594;10.958;2023-12-20T13:37:08;6.00;99.90
9265;DHT22;4669;49.594;10.958;2023-12-20T13:42:10;6.00;99.90
9265;DHT22;4669;49.594;10.958;2023-12-20T13:47:13;5.90;99.90
9265;DHT22;4669;49.594;10.958;2023-12-20T13:52:15;5.90;99.90
9265;DHT22;4669;49.594;10.958;2023-12-20T13:57:17;5.80;99.90
9265;DHT22;4669;49.594;10.958;2023-12-20T14:02:20;5.90;99.90
9265;DHT22;4669;49.594;10.958;2023-12-20T14:07:22;5.90;99.90
9265;DHT22;4669;49.594;10.958;2023-12-20T14:12:24;5.80;99.90
9265;DHT22;4669;49.594;10.958;2023-12-20T14:17:28;5.80;99.90
9265;DHT22;4669;49.594;10.958;2023-12-20T14:22:30;5.80;99.90
9265;DHT22;4669;49.594;10.958;2023-12-20T14:27:32;5.80;99.90
9265;DHT22;4669;49.594;10.958;2023-12-20T14:32:36;5.80;99.90
9265;DHT22;4669;49.594;10.958;2023-12-20T14:37:38;5.80;99.90
9265;DHT22;4669;49.594;10.958;2023-12-20T14:42:41;5.90;99.90
9265;DHT22;4669;49.594;10.958;2023-12-20T14:47:44;5.80;99.90
9265;DHT22;4669;49.594;10.958;2023-12-20T14:52:48;5.70;99.90
9265;DHT22;4669;49.594;10.958;2023-12-20T14:57:50;5.70;99.90
9265;DHT22;4669;49.594;10.958;2023-12-20T15:02:53;5.70;99.90
9265;DHT22;4669;49.594;10.958;2023-12-20T15:07:55;5.60;99.90
9265;DHT22;4669;49.594;10.958;2023-12-20T15:12:57;5.60;99.90
9265;DHT22;4669;49.594;10.958;2023-12-20T15:18:01;5.50;99.90
9265;DHT22;4669;49.594;10.958;2023-12-20T15:23:03;5.50;99.90
9265;DHT22;4669;49.594;10.958;2023-12-20T15:28:07;5.50;99.90
9265;DHT22;4669;49.594;10.958;2023-12-20T15:33:11;5.50;99.90
9265;DHT22;4669;49.594;10.958;2023-12-20T15:38:13;5.50;99.90
9265;DHT22;4669;49.594;10.958;2023-12-20T15:43:15;5.60;99.90
9265;DHT22;4669;49.594;10.958;2023-12-20T15:48:18;5.50;99.90
9265;DHT22;4669;49.594;10.958;2023-12-20T15:53:21;5.60;99.90
9265;DHT22;4669;49.594;10.958;2023-12-20T15:58:23;5.60;99.90
9265;DHT22;4669;49.594;10.958;2023-12-20T16:03:26;5.60;99.90
9265;DHT22;4669;49.594;10.958;2023-12-20T16:08:28;5.50;99.90
9265;DHT22;4669;49.594;10.958;2023-12-20T16:13:30;5.60;99.90
9265;DHT22;4669;49.594;10.958;2023-12-20T16:18:34;5.60;99.90
9265;DHT22;4669;49.594;10.958;2023-12-20T16:23:36;5.50;99.90
9265;DHT22;4669;49.594;10.958;2023-12-20T16:28:38;5.50;99.90
9265;DHT22;4669;49.594;10.958;2023-12-20T16:33:41;5.60;99.90
9265;DHT22;4669;49.594;10.958;2023-12-20T16:38:43;5.60;99.90
9265;DHT22;4669;49.594;10.958;2023-12-20T16:43:45;5.50;99.90
9265;DHT22;4669;49.594;10.958;2023-12-20T16:48:50;5.50;99.90
9265;DHT22;4669;49.594;10.958;2023-12-20T16:53:52;5.50;99.90
9265;DHT22;4669;49.594;10.958;2023-12-20T16:58:54;5.60;99.90
9265;DHT22;4669;49.594;10.958;2023-12-20T17:03:58;5.60;99.90
9265;DHT22;4669;49.594;10.958;2023-12-20T17:09:02;5.50;99.90
9265;DHT22;4669;49.594;10.958;2023-12-20T17:14:04;5.60;99.90
9265;DHT22;4669;49.594;10.958;2023-12-20T17:19:07;5.60;99.90
9265;DHT22;4669;49.594;10.958;2023-12-20T17:24:09;5.60;99.90
9265;DHT22;4669;49.594;10.958;2023-12-20T17:29:11;5.60;99.90
9265;DHT22;4669;49.594;10.958;2023-12-20T17:34:15;5.60;99.90
9265;DHT22;4669;49.594;10.958;2023-12-20T17:39:17;5.60;99.90
9265;DHT22;4669;49.594;10.958;2023-12-20T17:44:19;5.60;99.90
9265;DHT22;4669;49.594;10.958;2023-12-20T17:49:23;5.60;99.90
9265;DHT22;4669;49.594;10.958;2023-12-20T17:54:25;5.60;99.90
9265;DHT22;4669;49.594;10.958;2023-12-20T17:59:30;5.60;99.90
9265;DHT22;4669;49.594;10.958;2023-12-20T18:04:33;5.60;99.90
9265;DHT22;4669;49.594;10.958;2023-12-20T18:09:35;5.60;99.90
9265;DHT22;4669;49.594;10.958;2023-12-20T18:14:37;5.50;99.90
9265;DHT22;4669;49.594;10.958;2023-12-20T18:19:40;5.50;99.90
9265;DHT22;4669;49.594;10.958;2023-12-20T18:24:42;5.50;99.90
9265;DHT22;4669;49.594;10.958;2023-12-20T18:29:45;5.50;99.90
9265;DHT22;4669;49.594;10.958;2023-12-20T18:34:48;5.50;99.90
9265;DHT22;4669;49.594;10.958;2023-12-20T18:39:50;5.40;99.90
9265;DHT22;4669;49.594;10.958;2023-12-20T18:44:52;5.40;99.90
9265;DHT22;4669;49.594;10.958;2023-12-20T18:49:57;5.40;99.90
9265;DHT22;4669;49.594;10.958;2023-12-20T18:55:03;5.50;99.90
9265;DHT22;4669;49.594;10.958;2023-12-20T19:00:06;5.40;99.90
9265;DHT22;4669;49.594;10.958;2023-12-20T19:05:11;5.40;99.90
9265;DHT22;4669;49.594;10.958;2023-12-20T19:10:14;5.40;99.90
9265;DHT22;4669;49.594;10.958;2023-12-20T19:15:16;5.40;99.90
9265;DHT22;4669;49.594;10.958;2023-12-20T19:20:19;5.40;99.90
9265;DHT22;4669;49.594;10.958;2023-12-20T19:25:21;5.40;99.90
9265;DHT22;4669;49.594;10.958;2023-12-20T19:30:23;5.40;99.90
9265;DHT22;4669;49.594;10.958;2023-12-20T19:35:27;5.40;99.90
9265;DHT22;4669;49.594;10.958;2023-12-20T19:40:29;5.40;99.90
9265;DHT22;4669;49.594;10.958;2023-12-20T19:45:31;5.40;99.90
9265;DHT22;4669;49.594;10.958;2023-12-20T19:50:35;5.40;99.90
9265;DHT22;4669;49.594;10.958;2023-12-20T19:55:37;5.40;99.90
9265;DHT22;4669;49.594;10.958;2023-12-20T20:00:39;5.40;99.90
9265;DHT22;4669;49.594;10.958;2023-12-20T20:05:42;5.40;99.90
9265;DHT22;4669;49.594;10.958;2023-12-20T20:10:44;5.40;99.90
9265;DHT22;4669;49.594;10.958;2023-12-20T20:15:47;5.40;99.90
9265;DHT22;4669;49.594;10.958;2023-12-20T20:20:50;5.40;99.90
9265;DHT22;4669;49.594;10.958;2023-12-20T20:25:52;5.40;99.90
9265;DHT22;4669;49.594;10.958;2023-12-20T20:30:56;5.40;99.90
9265;DHT22;4669;49.594;10.958;2023-12-20T20:36:00;5.40;99.90
9265;DHT22;4669;49.594;10.958;2023-12-20T20:41:04;5.40;99.90
9265;DHT22;4669;49.594;10.958;2023-12-20T20:46:06;5.40;99.90
9265;DHT22;4669;49.594;10.958;2023-12-20T20:51:10;5.30;99.90
9265;DHT22;4669;49.594;10.958;2023-12-20T20:56:12;5.40;99.90
9265;DHT22;4669;49.594;10.958;2023-12-20T21:01:14;5.30;99.90
9265;DHT22;4669;49.594;10.958;2023-12-20T21:06:18;5.30;99.90
9265;DHT22;4669;49.594;10.958;2023-12-20T21:11:21;5.30;99.90
9265;DHT22;4669;49.594;10.958;2023-12-20T21:16:23;5.30;99.90
9265;DHT22;4669;49.594;10.958;2023-12-20T21:21:27;5.30;99.90
9265;DHT22;4669;49.594;10.958;2023-12-20T21:26:28;5.30;99.90
9265;DHT22;4669;49.594;10.958;2023-12-20T21:31:31;5.40;99.90
9265;DHT22;4669;49.594;10.958;2023-12-20T21:36:34;5.30;99.90
9265;DHT22;4669;49.594;10.958;2023-12-20T21:41:36;5.40;99.90
9265;DHT22;4669;49.594;10.958;2023-12-20T21:46:38;5.30;99.90
9265;DHT22;4669;49.594;10.958;2023-12-20T21:51:43;5.30;99.90
9265;DHT22;4669;49.594;10.958;2023-12-20T21:56:45;5.40;99.90
9265;DHT22;4669;49.594;10.958;2023-12-20T22:01:49;5.40;99.90
9265;DHT22;4669;49.594;10.958;2023-12-20T22:06:52;5.50;99.90
9265;DHT22;4669;49.594;10.958;2023-12-20T22:11:54;5.40;99.90
9265;DHT22;4669;49.594;10.958;2023-12-20T22:16:56;5.40;99.90
9265;DHT22;4669;49.594;10.958;2023-12-20T22:22:00;5.40;99.90
9265;DHT22;4669;49.594;10.958;2023-12-20T22:27:02;5.50;99.90
9265;DHT22;4669;49.594;10.958;2023-12-20T22:32:05;5.50;99.90
9265;DHT22;4669;49.594;10.958;2023-12-20T22:37:09;5.60;99.90
9265;DHT22;4669;49.594;10.958;2023-12-20T22:42:11;5.50;99.90
9265;DHT22;4669;49.594;10.958;2023-12-20T22:47:13;5.60;99.90
9265;DHT22;4669;49.594;10.958;2023-12-20T22:52:17;5.60;99.90
9265;DHT22;4669;49.594;10.958;2023-12-20T22:57:19;5.60;99.90
